FQMA/MPM METAR and TAF weather

Enter ICAO airport designator
Station Type Date Time Source
FQMA METAR 2018/01/21 12:00 UTC NOAA

FQMA 211200Z 12008KT 9999 BKN020 30/17 Q1015 NOSIG


Station Type Date Time Source
FQMA Decoded METAR 2018/01/21 12:00 UTC NOAA

Maputo / Mavalane, Mozambique (FQMA) 25-55S 032-34E 44M
Jan 21, 2018 - 07:00 AM EST / 2018.01.21 1200 UTC
Wind: from the ESE (120 degrees) at 9 MPH (8 KT):0
Visibility: greater than 7 mile(s):0
Sky conditions: mostly cloudy
Temperature: 86 F (30 C)
Dew Point: 62 F (17 C)
Relative Humidity: 45%
Pressure (altimeter): 29.97 in. Hg (1015 hPa)
ob: FQMA 211200Z 12008KT 9999 BKN020 30/17 Q1015 NOSIG
cycle: 12

Station Type Date Time Source
FQMA TAF 2018/01/21 06:18 UTC NOAA

TAF FQMA 210400Z 2106/2212 17008KT 9999 FEW020
BECMG 2112/2114 10012KT
BECMG 2119/2121 19008KT SCT020 TX32/2113Z TN21/2203Z


Example: see airport list